Time,TemperatureF,DewpointF,PressureIn,WindDirection,WindDirectionDegrees,WindSpeedMPH,WindSpeedGustMPH,Humidity,HourlyPrecipIn,Conditions,Clouds,dailyrainin,SoftwareType,DateUTC
2013-02-17 00:01:00,41.0,37.0,30.19,SSW,205,4.0,9.0,86,0.00,,,0.00,,2013-02-17 08:01:00,
2013-02-17 00:11:00,41.0,37.0,30.19,SSW,205,4.0,9.0,86,0.00,,,0.00,,2013-02-17 08:11:00,
2013-02-17 00:21:00,40.0,36.0,30.19,South,182,3.0,9.0,87,0.00,,,0.00,,2013-02-17 08:21:00,
2013-02-17 00:31:00,40.0,36.0,30.19,South,182,3.0,9.0,87,0.00,,,0.00,,2013-02-17 08:31:00,
2013-02-17 00:42:00,40.0,36.0,30.19,South,182,3.0,9.0,87,0.00,,,0.00,,2013-02-17 08:42:00,
2013-02-17 00:52:00,40.0,37.0,30.20,SSE,158,2.0,8.0,88,0.00,,,0.00,,2013-02-17 08:52:00,
2013-02-17 01:01:00,40.0,37.0,30.20,SSE,158,2.0,8.0,88,0.00,,,0.00,,2013-02-17 09:01:00,
2013-02-17 01:11:00,40.0,37.0,30.20,SSE,158,2.0,8.0,88,0.00,,,0.00,,2013-02-17 09:11:00,
2013-02-17 01:21:00,40.0,37.0,30.21,SE,135,3.0,6.0,88,0.00,,,0.00,,2013-02-17 09:21:00,
2013-02-17 01:31:00,40.0,37.0,30.21,SE,135,3.0,6.0,88,0.00,,,0.00,,2013-02-17 09:31:00,
2013-02-17 01:42:00,40.0,37.0,30.21,SE,135,3.0,6.0,88,0.00,,,0.00,,2013-02-17 09:42:00,
2013-02-17 01:52:00,39.0,36.0,30.21,SE,134,3.0,5.0,89,0.00,,,0.00,,2013-02-17 09:52:00,
2013-02-17 02:01:00,39.0,36.0,30.21,SE,134,3.0,5.0,89,0.00,,,0.00,,2013-02-17 10:01:00,
2013-02-17 02:11:00,39.0,36.0,30.21,SE,134,3.0,5.0,89,0.00,,,0.00,,2013-02-17 10:11:00,
2013-02-17 02:21:00,40.0,37.0,30.22,ESE,115,3.0,7.0,88,0.00,,,0.00,,2013-02-17 10:21:00,
2013-02-17 02:31:00,40.0,37.0,30.22,ESE,115,3.0,7.0,88,0.00,,,0.00,,2013-02-17 10:31:00,
2013-02-17 02:42:00,40.0,37.0,30.22,ESE,115,3.0,7.0,88,0.00,,,0.00,,2013-02-17 10:42:00,
2013-02-17 02:52:00,40.0,36.0,30.22,SE,138,5.0,8.0,87,0.00,,,0.00,,2013-02-17 10:52:00,
2013-02-17 03:01:00,40.0,36.0,30.22,SE,138,5.0,8.0,87,0.00,,,0.00,,2013-02-17 11:01:00,
2013-02-17 03:11:00,40.0,36.0,30.22,SE,138,5.0,8.0,87,0.00,,,0.00,,2013-02-17 11:11:00,
2013-02-17 03:21:00,40.0,36.0,30.22,SE,141,6.0,9.0,87,0.00,,,0.00,,2013-02-17 11:21:00,
2013-02-17 03:32:00,40.0,36.0,30.22,SE,141,6.0,9.0,87,0.00,,,0.00,,2013-02-17 11:32:00,
2013-02-17 03:42:00,40.0,36.0,30.22,SE,141,6.0,9.0,87,0.00,,,0.00,,2013-02-17 11:42:00,
2013-02-17 03:52:00,40.0,36.0,30.22,SSE,159,4.0,7.0,87,0.00,,,0.00,,2013-02-17 11:52:00,
2013-02-17 04:02:00,40.0,36.0,30.22,SSE,159,4.0,7.0,87,0.00,,,0.00,,2013-02-17 12:02:00,
2013-02-17 04:11:00,40.0,36.0,30.22,SSE,159,4.0,7.0,87,0.00,,,0.00,,2013-02-17 12:11:00,
2013-02-17 04:22:00,40.0,36.0,30.22,SSE,163,4.0,8.0,87,0.00,,,0.00,,2013-02-17 12:22:00,
2013-02-17 04:31:00,40.0,36.0,30.22,SSE,163,4.0,8.0,87,0.00,,,0.00,,2013-02-17 12:31:00,
2013-02-17 04:42:00,40.0,36.0,30.22,SSE,163,4.0,8.0,87,0.00,,,0.00,,2013-02-17 12:42:00,
2013-02-17 04:52:00,40.0,36.0,30.22,SSE,163,4.0,8.0,87,0.00,,,0.00,,2013-02-17 12:52:00,
2013-02-17 05:01:00,40.0,36.0,30.22,SSE,163,4.0,8.0,87,0.00,,,0.00,,2013-02-17 13:01:00,
2013-02-17 05:22:00,40.0,36.0,30.22,SSW,197,4.0,8.0,87,0.00,,,0.00,,2013-02-17 13:22:00,
2013-02-17 05:32:00,40.0,36.0,30.22,SSW,197,4.0,8.0,87,0.00,,,0.00,,2013-02-17 13:32:00,
2013-02-17 05:42:00,40.0,36.0,30.22,SSW,197,4.0,8.0,87,0.00,,,0.00,,2013-02-17 13:42:00,
2013-02-17 05:52:00,40.0,36.0,30.22,SE,140,3.0,7.0,87,0.00,,,0.00,,2013-02-17 13:52:00,
2013-02-17 06:01:00,40.0,36.0,30.22,SE,140,3.0,7.0,87,0.00,,,0.00,,2013-02-17 14:01:00,
2013-02-17 06:11:00,40.0,36.0,30.22,SE,140,3.0,7.0,87,0.00,,,0.00,,2013-02-17 14:11:00,
2013-02-17 06:21:00,40.0,36.0,30.23,South,190,2.0,5.0,87,0.00,,,0.00,,2013-02-17 14:21:00,
2013-02-17 06:32:00,40.0,36.0,30.23,South,190,2.0,5.0,87,0.00,,,0.00,,2013-02-17 14:32:00,
2013-02-17 06:42:00,40.0,36.0,30.23,South,190,2.0,5.0,87,0.00,,,0.00,,2013-02-17 14:42:00,
2013-02-17 06:53:00,39.0,35.0,30.22,South,184,5.0,7.0,87,0.00,,,0.00,,2013-02-17 14:53:00,
2013-02-17 07:01:00,39.0,35.0,30.22,South,184,5.0,7.0,87,0.00,,,0.00,,2013-02-17 15:01:00,
2013-02-17 07:11:00,39.0,35.0,30.22,South,184,5.0,7.0,87,0.00,,,0.00,,2013-02-17 15:11:00,
2013-02-17 07:21:00,39.0,35.0,30.22,SSW,212,2.0,7.0,87,0.00,,,0.00,,2013-02-17 15:21:00,
2013-02-17 07:31:00,39.0,35.0,30.22,SSW,212,2.0,7.0,87,0.00,,,0.00,,2013-02-17 15:31:00,
2013-02-17 07:42:00,39.0,35.0,30.22,SSW,212,2.0,7.0,87,0.00,,,0.00,,2013-02-17 15:42:00,
2013-02-17 07:52:00,39.0,36.0,30.22,SW,231,3.0,9.0,88,0.00,,,0.00,,2013-02-17 15:52:00,
2013-02-17 08:01:00,39.0,36.0,30.22,SW,231,3.0,9.0,88,0.00,,,0.00,,2013-02-17 16:01:00,
2013-02-17 08:11:00,39.0,36.0,30.22,SW,231,3.0,9.0,88,0.00,,,0.00,,2013-02-17 16:11:00,
2013-02-17 08:21:00,39.0,36.0,30.23,WSW,245,4.0,9.0,88,0.00,,,0.00,,2013-02-17 16:21:00,
2013-02-17 08:31:00,39.0,36.0,30.23,WSW,245,4.0,9.0,88,0.00,,,0.00,,2013-02-17 16:31:00,
2013-02-17 08:42:00,39.0,36.0,30.23,WSW,245,4.0,9.0,88,0.00,,,0.00,,2013-02-17 16:42:00,
2013-02-17 08:52:00,39.0,36.0,30.23,SW,229,6.0,10.0,89,0.00,,,0.00,,2013-02-17 16:52:00,
2013-02-17 09:02:00,39.0,36.0,30.23,SW,229,6.0,10.0,89,0.00,,,0.00,,2013-02-17 17:02:00,
2013-02-17 09:11:00,39.0,36.0,30.23,SW,229,6.0,10.0,89,0.00,,,0.00,,2013-02-17 17:11:00,
2013-02-17 09:21:00,39.0,36.0,30.23,SW,215,3.0,7.0,89,0.00,,,0.00,,2013-02-17 17:21:00,
2013-02-17 09:31:00,39.0,36.0,30.23,SW,215,3.0,7.0,89,0.00,,,0.00,,2013-02-17 17:31:00,
2013-02-17 09:42:00,39.0,36.0,30.23,SW,215,3.0,7.0,89,0.00,,,0.00,,2013-02-17 17:42:00,
2013-02-17 09:52:00,40.0,37.0,30.23,WSW,239,5.0,9.0,88,0.00,,,0.00,,2013-02-17 17:52:00,
2013-02-17 10:01:00,40.0,37.0,30.23,WSW,239,5.0,9.0,88,0.00,,,0.00,,2013-02-17 18:01:00,
2013-02-17 10:11:00,40.0,37.0,30.23,WSW,239,5.0,9.0,88,0.00,,,0.00,,2013-02-17 18:11:00,
2013-02-17 10:21:00,40.0,37.0,30.24,SW,226,4.0,8.0,88,0.00,,,0.00,,2013-02-17 18:21:00,
2013-02-17 10:33:00,40.0,37.0,30.24,SW,226,4.0,8.0,88,0.00,,,0.00,,2013-02-17 18:33:00,
2013-02-17 10:42:00,40.0,37.0,30.24,SW,226,4.0,8.0,88,0.00,,,0.00,,2013-02-17 18:42:00,
2013-02-17 10:52:00,39.0,36.0,30.24,WSW,249,3.0,7.0,89,0.00,,,0.00,,2013-02-17 18:52:00,
2013-02-17 11:01:00,39.0,36.0,30.24,WSW,249,3.0,7.0,89,0.00,,,0.00,,2013-02-17 19:01:00,
2013-02-17 11:11:00,39.0,36.0,30.24,WSW,249,3.0,7.0,89,0.00,,,0.00,,2013-02-17 19:11:00,
2013-02-17 11:21:00,40.0,36.0,30.23,SW,226,4.0,7.0,87,0.00,,,0.00,,2013-02-17 19:21:00,
2013-02-17 11:31:00,40.0,36.0,30.23,SW,226,4.0,7.0,87,0.00,,,0.00,,2013-02-17 19:31:00,
2013-02-17 11:42:00,40.0,36.0,30.23,SW,226,4.0,7.0,87,0.00,,,0.00,,2013-02-17 19:42:00,
2013-02-17 11:52:00,41.0,38.0,30.23,WSW,249,4.0,8.0,88,0.00,,,0.00,,2013-02-17 19:52:00,
2013-02-17 12:01:00,41.0,38.0,30.23,WSW,249,4.0,8.0,88,0.00,,,0.00,,2013-02-17 20:01:00,
2013-02-17 12:11:00,41.0,38.0,30.23,WSW,249,4.0,8.0,88,0.00,,,0.00,,2013-02-17 20:11:00,
2013-02-17 12:21:00,41.0,39.0,30.22,SE,146,1.0,2.0,91,0.02,,,0.02,,2013-02-17 20:21:00,
2013-02-17 12:31:00,41.0,39.0,30.22,SE,146,1.0,2.0,91,0.02,,,0.02,,2013-02-17 20:31:00,
2013-02-17 12:42:00,41.0,39.0,30.22,SE,146,1.0,2.0,91,0.02,,,0.02,,2013-02-17 20:42:00,
2013-02-17 12:52:00,43.0,39.0,30.21,SE,146,2.0,5.0,86,0.02,,,0.02,,2013-02-17 20:52:00,
2013-02-17 13:01:00,43.0,39.0,30.21,SE,146,2.0,5.0,86,0.02,,,0.02,,2013-02-17 21:01:00,
2013-02-17 13:11:00,43.0,39.0,30.21,SE,146,2.0,5.0,86,0.02,,,0.02,,2013-02-17 21:11:00,
2013-02-17 13:21:00,44.0,39.0,30.21,WNW,291,2.0,7.0,81,0.00,,,0.02,,2013-02-17 21:21:00,
2013-02-17 13:31:00,44.0,39.0,30.21,WNW,291,2.0,7.0,81,0.00,,,0.02,,2013-02-17 21:31:00,
2013-02-17 13:42:00,44.0,39.0,30.21,WNW,291,2.0,7.0,81,0.00,,,0.02,,2013-02-17 21:42:00,
2013-02-17 13:52:00,44.0,38.0,30.20,SW,229,2.0,6.0,78,0.00,,,0.02,,2013-02-17 21:52:00,
2013-02-17 14:01:00,44.0,38.0,30.20,SW,229,2.0,6.0,78,0.00,,,0.02,,2013-02-17 22:01:00,
2013-02-17 14:11:00,44.0,38.0,30.20,SW,229,2.0,6.0,78,0.00,,,0.02,,2013-02-17 22:11:00,
2013-02-17 14:21:00,44.0,38.0,30.20,SW,222,1.0,4.0,79,0.00,,,0.02,,2013-02-17 22:21:00,
2013-02-17 14:32:00,44.0,38.0,30.20,SW,222,1.0,4.0,79,0.00,,,0.02,,2013-02-17 22:32:00,
2013-02-17 14:42:00,44.0,38.0,30.20,SW,222,1.0,4.0,79,0.00,,,0.02,,2013-02-17 22:42:00,
2013-02-17 14:52:00,42.0,38.0,30.20,West,266,5.0,9.0,85,0.00,,,0.02,,2013-02-17 22:52:00,
2013-02-17 15:01:00,42.0,38.0,30.20,West,266,5.0,9.0,85,0.00,,,0.02,,2013-02-17 23:01:00,
2013-02-17 15:11:00,42.0,38.0,30.20,West,266,5.0,9.0,85,0.00,,,0.02,,2013-02-17 23:11:00,
2013-02-17 15:21:00,41.0,37.0,30.19,NNW,342,0.0,3.0,84,0.03,,,0.05,,2013-02-17 23:21:00,
2013-02-17 15:31:00,41.0,37.0,30.19,NNW,342,0.0,3.0,84,0.03,,,0.05,,2013-02-17 23:31:00,
2013-02-17 15:42:00,41.0,37.0,30.19,NNW,342,0.0,3.0,84,0.03,,,0.05,,2013-02-17 23:42:00,
2013-02-17 15:52:00,43.0,37.0,30.19,SW,233,2.0,3.0,79,0.03,,,0.05,,2013-02-17 23:52:00,
2013-02-17 16:01:00,43.0,37.0,30.19,SW,233,2.0,3.0,79,0.03,,,0.05,,2013-02-18 00:01:00,
2013-02-17 16:11:00,43.0,37.0,30.19,SW,233,2.0,3.0,79,0.03,,,0.05,,2013-02-18 00:11:00,
2013-02-17 16:22:00,44.0,38.0,30.17,SSW,211,0.0,2.0,80,0.00,,,0.05,,2013-02-18 00:22:00,
2013-02-17 16:31:00,44.0,38.0,30.17,SSW,211,0.0,2.0,80,0.00,,,0.05,,2013-02-18 00:31:00,
2013-02-17 16:42:00,44.0,38.0,30.17,SSW,211,0.0,2.0,80,0.00,,,0.05,,2013-02-18 00:42:00,
2013-02-17 16:52:00,44.0,38.0,30.17,ESE,111,0.0,2.0,80,0.00,,,0.05,,2013-02-18 00:52:00,
2013-02-17 17:01:00,44.0,38.0,30.17,ESE,111,0.0,2.0,80,0.00,,,0.05,,2013-02-18 01:01:00,
2013-02-17 17:11:00,44.0,38.0,30.17,ESE,111,0.0,2.0,80,0.00,,,0.05,,2013-02-18 01:11:00,
2013-02-17 17:21:00,44.0,38.0,30.16,SSW,198,1.0,2.0,79,0.00,,,0.05,,2013-02-18 01:21:00,
2013-02-17 17:31:00,44.0,38.0,30.16,SSW,198,1.0,2.0,79,0.00,,,0.05,,2013-02-18 01:31:00,
2013-02-17 17:42:00,44.0,38.0,30.16,SSW,198,1.0,2.0,79,0.00,,,0.05,,2013-02-18 01:42:00,
2013-02-17 17:51:00,44.0,37.0,30.15,SSE,159,1.0,3.0,77,0.00,,,0.05,,2013-02-18 01:51:00,
2013-02-17 18:01:00,44.0,37.0,30.15,SSE,159,1.0,3.0,77,0.00,,,0.05,,2013-02-18 02:01:00,
2013-02-17 18:11:00,44.0,37.0,30.15,SSE,159,1.0,3.0,77,0.00,,,0.05,,2013-02-18 02:11:00,
2013-02-17 18:21:00,43.0,37.0,30.15,SE,132,2.0,3.0,78,0.00,,,0.05,,2013-02-18 02:21:00,
2013-02-17 18:31:00,43.0,37.0,30.15,SE,132,2.0,3.0,78,0.00,,,0.05,,2013-02-18 02:31:00,
2013-02-17 18:42:00,43.0,37.0,30.15,SE,132,2.0,3.0,78,0.00,,,0.05,,2013-02-18 02:42:00,
2013-02-17 18:52:00,43.0,37.0,30.15,SSW,204,2.0,4.0,80,0.00,,,0.05,,2013-02-18 02:52:00,
2013-02-17 19:01:00,43.0,37.0,30.15,SSW,204,2.0,4.0,80,0.00,,,0.05,,2013-02-18 03:01:00,
2013-02-17 19:11:00,43.0,37.0,30.15,SSW,204,2.0,4.0,80,0.00,,,0.05,,2013-02-18 03:11:00,
2013-02-17 19:21:00,42.0,37.0,30.15,SW,233,2.0,6.0,83,0.00,,,0.05,,2013-02-18 03:21:00,
2013-02-17 19:31:00,42.0,37.0,30.15,SW,233,2.0,6.0,83,0.00,,,0.05,,2013-02-18 03:31:00,
2013-02-17 19:42:00,42.0,37.0,30.15,SW,233,2.0,6.0,83,0.00,,,0.05,,2013-02-18 03:42:00,
2013-02-17 19:52:00,42.0,38.0,30.15,SSW,204,3.0,6.0,84,0.00,,,0.05,,2013-02-18 03:52:00,
2013-02-17 20:01:00,42.0,38.0,30.15,SSW,204,3.0,6.0,84,0.00,,,0.05,,2013-02-18 04:01:00,
2013-02-17 20:11:00,42.0,38.0,30.15,SSW,204,3.0,6.0,84,0.00,,,0.05,,2013-02-18 04:11:00,
2013-02-17 20:21:00,42.0,38.0,30.15,SSW,193,3.0,5.0,85,0.00,,,0.05,,2013-02-18 04:21:00,
2013-02-17 20:32:00,42.0,38.0,30.15,SSW,193,3.0,5.0,85,0.00,,,0.05,,2013-02-18 04:32:00,
2013-02-17 20:42:00,42.0,38.0,30.15,SSW,193,3.0,5.0,85,0.00,,,0.05,,2013-02-18 04:42:00,
2013-02-17 20:52:00,42.0,38.0,30.15,SSE,168,4.0,7.0,87,0.00,,,0.05,,2013-02-18 04:52:00,
2013-02-17 21:01:00,42.0,38.0,30.15,SSE,168,4.0,7.0,87,0.00,,,0.05,,2013-02-18 05:01:00,
2013-02-17 21:11:00,42.0,38.0,30.15,SSE,168,4.0,7.0,87,0.00,,,0.05,,2013-02-18 05:11:00,
2013-02-17 21:21:00,41.0,38.0,30.14,SW,217,2.0,4.0,88,0.00,,,0.05,,2013-02-18 05:21:00,
2013-02-17 21:31:00,41.0,38.0,30.14,SW,217,2.0,4.0,88,0.00,,,0.05,,2013-02-18 05:31:00,
2013-02-17 21:42:00,41.0,38.0,30.14,SW,217,2.0,4.0,88,0.00,,,0.05,,2013-02-18 05:42:00,
2013-02-17 21:52:00,41.0,38.0,30.14,SW,219,1.0,3.0,89,0.00,,,0.05,,2013-02-18 05:52:00,
2013-02-17 22:01:00,41.0,38.0,30.14,SW,219,1.0,3.0,89,0.00,,,0.05,,2013-02-18 06:01:00,
2013-02-17 22:11:00,41.0,38.0,30.14,SW,219,1.0,3.0,89,0.00,,,0.05,,2013-02-18 06:11:00,
2013-02-17 22:21:00,41.0,38.0,30.13,South,186,1.0,5.0,90,0.00,,,0.05,,2013-02-18 06:21:00,
2013-02-17 22:31:00,41.0,38.0,30.13,South,186,1.0,5.0,90,0.00,,,0.05,,2013-02-18 06:31:00,
2013-02-17 22:42:00,41.0,38.0,30.13,South,186,1.0,5.0,90,0.00,,,0.05,,2013-02-18 06:42:00,
2013-02-17 22:52:00,40.0,37.0,30.13,ESE,112,0.0,1.0,90,0.00,,,0.05,,2013-02-18 06:52:00,
2013-02-17 23:01:00,40.0,37.0,30.13,ESE,112,0.0,1.0,90,0.00,,,0.05,,2013-02-18 07:01:00,
2013-02-17 23:11:00,40.0,37.0,30.13,ESE,112,0.0,1.0,90,0.00,,,0.05,,2013-02-18 07:11:00,
2013-02-17 23:21:00,40.0,38.0,30.12,ESE,121,0.0,1.0,91,0.00,,,0.05,,2013-02-18 07:21:00,
2013-02-17 23:31:00,40.0,38.0,30.12,ESE,121,0.0,1.0,91,0.00,,,0.05,,2013-02-18 07:31:00,
2013-02-17 23:42:00,40.0,38.0,30.12,ESE,121,0.0,1.0,91,0.00,,,0.05,,2013-02-18 07:42:00,
2013-02-17 23:52:00,40.0,38.0,30.11,ESE,104,2.0,3.0,91,0.00,,,0.05,,2013-02-18 07:52:00,